NCAR-RAP Real-Time Weather Data

Output produced by METARs form (23 February 2020  01:34 UTC)
found at http://weather.rap.ucar.edu/surface/
 
KORL 230053Z 01011KT 10SM CLR 14/10 A3028 RMK AO2 SLP260 T01440100
KORL 222353Z 02013KT 10SM CLR 15/10 A3028 RMK AO2 SLP258 T01500100 10217 20150 51008
KORL 222253Z 02014KT 10SM FEW023 17/10 A3028 RMK AO2 SLP258 T01670100
KORL 222153Z 02014G20KT 10SM FEW026 18/10 A3026 RMK AO2 SLP253 T01830100
KORL 222126Z 02018G23KT 10SM SCT028 19/10 A3026 RMK AO2 T01890100
KORL 222117Z 02015G22KT 10SM BKN029 19/11 A3026 RMK AO2 T01890106
KORL 222053Z 02017KT 10SM SCT031 BKN060 19/11 A3025 RMK AO2 SLP250 T01890106 55011
KORL 221953Z 03011G22KT 10SM SCT035 BKN060 21/10 A3025 RMK AO2 SLP247 T02060100
KORL 221853Z 02016G21KT 10SM SCT038 20/10 A3026 RMK AO2 SLP253 T02000100
KORL 221753Z 02015G21KT 10SM FEW040 21/09 A3029 RMK AO2 SLP260 T02110094 10211 20078 58010
KORL 221653Z 04016G20KT 10SM CLR 21/09 A3031 RMK AO2 SLP268 T02060094
KORL 221553Z 03010KT 10SM CLR 19/09 A3032 RMK AO2 SLP270 T01890094
KORL 221453Z 01013KT 10SM CLR 14/07 A3032 RMK AO2 SLP271 T01440072 51019
KORL 221353Z 36010G16KT 10SM CLR 11/06 A3031 RMK AO2 SLP268 T01110056
KORL 221253Z 34008KT 10SM CLR 08/04 A3029 RMK AO2 SLP263 T00830044
KORL 221153Z AUTO 34007KT 10SM CLR 08/04 A3026 RMK AO2 SLP252 T00780039 10083 20072 51010
KORL 221053Z AUTO 34008KT 10SM CLR 08/04 A3026 RMK AO2 SLP252 T00780039
KORL 220953Z AUTO 35008KT 10SM CLR 08/04 A3024 RMK AO2 SLP246 T00830039
KORL 220853Z AUTO 35008KT 10SM CLR 08/03 A3023 RMK AO2 SLP242 T00780033 58015
KORL 220753Z AUTO 34009KT 10SM CLR 08/03 A3025 RMK AO2 SLP248 T00780028
KORL 220653Z AUTO 34009KT 10SM CLR 08/03 A3026 RMK AO2 SLP253 T00780028
KORL 220553Z AUTO 34007KT 10SM CLR 08/03 A3027 RMK AO2 SLP257 T00830033 10100 20083 58012
KORL 220453Z AUTO 36010KT 10SM CLR 09/03 A3030 RMK AO2 SLP264 T00940033 401720094
KORL 220353Z AUTO 01012G19KT 10SM CLR 09/03 A3031 RMK AO2 PK WND 01026/0309 SLP268 T00940033
KORL 220253Z 36012G22KT 10SM SCT027 10/03 A3031 RMK AO2 SLP268 T01000033 51007
KORL 220249Z 36014G22KT 10SM BKN026 10/03 A3031 RMK AO2
KORL 220153Z 36014G22KT 10SM BKN031 09/03 A3030 RMK AO2 SLP266 T00940033
KORL 220053Z 01017KT 10SM SCT030 BKN060 OVC075 09/03 A3029 RMK AO2 PK WND 01027/2355 SLP261 T00940033
KORL 220006Z 01018G24KT 10SM SCT027 OVC055 10/04 A3027 RMK AO2 PK WND 01027/2355 T01000039
KORL 212353Z 36015G25KT 10SM BKN025 OVC050 10/04 A3027 RMK AO2 PK WND 01026/2306 SLP255 T01000039 10133 20100 53017
KORL 212253Z 36014G24KT 10SM OVC020 10/05 A3025 RMK AO2 PK WND 01028/2243 SLP248 T01000050
KORL 212153Z AUTO 01015G33KT 10SM OVC016 11/06 A3023 RMK AO2 PK WND 01033/2144 SLP243 T01060056
KORL 212053Z AUTO 36019G28KT 10SM OVC017 11/06 A3022 RMK AO2 PK WND 01029/2009 SLP238 T01110061 53001
KORL 211953Z 01019G30KT 10SM OVC017 12/06 A3021 RMK AO2 PK WND 01030/1930 SLP234 T01170061
KORL 211853Z 01018G25KT 10SM OVC016 12/07 A3020 RMK AO2 PK WND 36027/1839 SLP231 T01220072
KORL 211753Z 36014G25KT 10SM OVC015 13/08 A3022 RMK AO2 PK WND 02026/1739 SLP236 60000 T01330083 10133 20111 50003
KORL 211718Z 35014KT 10SM OVC015 13/08 A3022 RMK AO2 T01280083
KORL 211653Z 01022G31KT 10SM OVC014 13/08 A3023 RMK AO2 PK WND 01031/1651 SLP240 T01280083
KORL 211553Z 35012G21KT 10SM OVC012 12/09 A3022 RMK AO2 PK WND 01026/1542 SLP238 T01220089
KORL 211453Z 36013G20KT 5SM BR OVC011 12/09 A3021 RMK AO2 SLP233 60000 T01170094 51031
KORL 211353Z 36014G20KT 9SM OVC011 12/09 A3018 RMK AO2 PK WND 01026/1314 SLP225 T01170089
KORL 211253Z 01015G22KT 8SM OVC011 11/09 A3015 RMK AO2 RAB06E34 SLP214 P0000 T01110089
KORL 211153Z 36014G21KT 6SM BR OVC010 12/10 A3012 RMK AO2 RAB17E32 CIG 007V014 SLP202 P0000 60004 70004 T01170100 10161 20117 51015
KORL 211121Z AUTO 01015G21KT 4SM -RA BR BKN009 OVC014 12/10 A3010 RMK AO2 RAB17 P0000 T01170100
KORL 211053Z AUTO 01015G23KT 6SM BR OVC010 12/11 A3009 RMK AO2 RAE25 SLP193 P0001 T01220106
KORL 210953Z AUTO 36010KT 5SM -RA BR OVC010 13/11 A3007 RMK AO2 SLP186 P0001 T01280111
KORL 210929Z AUTO 01015G19KT 4SM -RA BR BKN010 BKN015 OVC029 13/11 A3005 RMK AO2 CIG 007V013 P0001 T01330111
KORL 210853Z AUTO 01013G22KT 4SM -RA BR SCT009 BKN015 OVC023 13/12 A3005 RMK AO2 SLP178 P0002 60002 T01330117 53004
KORL 210840Z AUTO 01015G22KT 5SM -RA BR SCT009 BKN015 OVC023 14/12 A3004 RMK AO2 P0001 T01390117
KORL 210753Z AUTO 01014KT 3SM -RA BR OVC007 14/12 A3004 RMK AO2 RAB43 SLP175 P0000 T01440122
KORL 210653Z AUTO 04007KT 10SM OVC007 14/12 A3004 RMK AO2 SLP175 T01440122
KORL 210553Z AUTO 05006KT 10SM OVC007 16/13 A3004 RMK AO2 SLP174 T01610133 10267 20161 58007
KORL 210453Z AUTO 03009KT 9SM OVC006 17/15 A3005 RMK AO2 SLP180 T01720150 402940172
KORL 210436Z AUTO 06009KT 7SM BKN006 OVC018 18/16 A3006 RMK AO2 T01780156
KORL 210419Z AUTO 04012KT 9SM FEW006 BKN018 OVC039 19/16 A3006 RMK AO2 T01890161
KORL 210353Z AUTO 31007KT 10SM BKN036 23/18 A3005 RMK AO2 SLP180 T02280178
KORL 210253Z 30008KT 10SM SCT024 OVC030 23/18 A3006 RMK AO2 SLP181 T02330178 51020
KORL 210211Z 29011KT 10SM BKN023 BKN029 24/19 A3005 RMK AO2 T02390189
KORL 210153Z 29012KT 10SM SCT021 24/19 A3004 RMK AO2 SLP177 T02390189